| time (UTC) | temp F | wind direction | speed MPH | gust MPH | rain 1hr in | rain 24hr in | rain mn in | humidity % | barometer mb |
| 20260507114829 | 59 | 91 | 2.0 | 3.0 | 0.00 | 0.00 | 0.00 | 100 | |
| 20260507114329 | 59 | 94 | 4.0 | 6.0 | 0.00 | 0.00 | 0.00 | 100 | |
| 20260507113829 | 61 | 91 | 3.0 | 4.0 | 0.00 | 0.00 | 0.00 | 100 | |
| 20260507113329 | 62 | 87 | 4.0 | 5.0 | 0.00 | 0.00 | 0.00 | 100 | |
| 20260507112829 | 62 | 91 | 4.0 | 6.0 | 0.00 | 0.00 | 0.00 | 100 | |
| 20260507112327 | 62 | 264 | 4.0 | 6.0 | 0.00 | 0.00 | 0.00 | 100 | |
| 20260507111819 | 62 | 221 | 4.0 | 7.0 | 0.00 | 0.00 | 0.00 | 100 | |
| 20260507110815 | 64 | 186 | 5.0 | 8.0 | 0.00 | 0.00 | 0.00 | 100 | |
| 20260507110314 | 64 | 213 | 3.0 | 6.0 | 0.00 | 0.00 | 0.00 | 100 | |
| 20260507105813 | 64 | 194 | 5.0 | 8.0 | 0.00 | 0.00 | 0.00 | 100 | |
| 20260507105312 | 65 | 197 | 4.0 | 7.0 | 0.00 | 0.00 | 0.00 | 100 | |
| 20260507104809 | 65 | 202 | 6.0 | 10.0 | 0.00 | 0.00 | 0.00 | 100 | |
| 20260507104309 | 65 | 184 | 4.0 | 6.0 | 0.00 | 0.00 | 0.00 | 100 | |
| 20260507103808 | 66 | 182 | 4.0 | 6.0 | 0.00 | 0.00 | 0.00 | 100 | |
| 20260507103308 | 66 | 191 | 5.0 | 7.0 | 0.00 | 0.00 | 0.00 | 100 | |
| 20260507102808 | 66 | 97 | 3.0 | 3.0 | 0.00 | 0.00 | 0.00 | 100 | |
| 20260507102307 | 66 | 115 | 2.0 | 2.0 | 0.00 | 0.00 | 0.00 | 100 | |
| 20260507101807 | 66 | 151 | 2.0 | 3.0 | 0.00 | 0.00 | 0.00 | 100 | |
| 20260507101307 | 66 | 168 | 2.0 | 3.0 | 0.00 | 0.00 | 0.00 | 100 | |
| 20260507100807 | 66 | 151 | 6.0 | 10.0 | 0.00 | 0.00 | 0.00 | 100 | |
| 20260507100256 | 66 | 125 | 2.0 | 5.0 | 0.00 | 0.00 | 0.00 | 100 | |
| 20260507095756 | 66 | 135 | 7.0 | 11.0 | 0.00 | 0.00 | 0.00 | 100 | |
| 20260507095256 | 66 | 120 | 5.0 | 8.0 | 0.00 | 0.00 | 0.00 | 100 | |
| 20260507094756 | 66 | 120 | 4.0 | 7.0 | 0.00 | 0.00 | 0.00 | 100 | |
| 20260507093754 | 67 | 126 | 6.0 | 10.0 | 0.00 | 0.00 | 0.00 | 100 | |
| 20260507093254 | 66 | 135 | 8.0 | 11.0 | 0.00 | 0.00 | 0.00 | 100 | |
| 20260507092754 | 66 | 127 | 8.0 | 11.0 | 0.00 | 0.00 | 0.00 | 100 | |
| 20260507091753 | 66 | 140 | 8.0 | 11.0 | 0.00 | 0.00 | 0.00 | 100 | |
| 20260507091253 | 66 | 131 | 10.0 | 13.0 | 0.00 | 0.00 | 0.00 | 100 | |
| 20260507090753 | 66 | 125 | 6.0 | 12.0 | 0.00 | 0.00 | 0.00 | 100 | |
| 20260507090253 | 65 | 125 | 7.0 | 12.0 | 0.00 | 0.00 | 0.00 | 100 | |
| 20260507085749 | 65 | 124 | 7.0 | 12.0 | 0.00 | 0.00 | 0.00 | 100 | |
| 20260507085249 | 65 | 138 | 6.0 | 8.0 | 0.00 | 0.00 | 0.00 | 100 | |
| 20260507084749 | 64 | 122 | 4.0 | 7.0 | 0.00 | 0.00 | 0.00 | 100 | |
| 20260507084249 | 64 | 119 | 3.0 | 6.0 | 0.00 | 0.00 | 0.00 | 100 | |
| 20260507083749 | 65 | 122 | 5.0 | 9.0 | 0.00 | 0.00 | 0.00 | 100 | |
| 20260507083249 | 65 | 137 | 6.0 | 10.0 | 0.00 | 0.00 | 0.00 | 100 | |
| 20260507082748 | 65 | 136 | 5.0 | 6.0 | 0.00 | 0.00 | 0.00 | 100 | |
| 20260507082248 | 64 | 131 | 7.0 | 10.0 | 0.00 | 0.00 | 0.00 | 100 | |
| 20260507081748 | 64 | 145 | 7.0 | 12.0 | 0.00 | 0.00 | 0.00 | 100 | |
| 20260507081248 | 64 | 131 | 7.0 | 10.0 | 0.00 | 0.00 | 0.00 | 100 | |
| 20260507080748 | 64 | 134 | 3.0 | 4.0 | 0.00 | 0.00 | 0.00 | 100 | |
| 20260507080247 | 64 | 139 | 6.0 | 12.0 | 0.00 | 0.00 | 0.00 | 100 | |
| 20260507075747 | 64 | 135 | 9.0 | 14.0 | 0.00 | 0.00 | 0.00 | 100 | |
| 20260507075247 | 64 | 141 | 6.0 | 10.0 | 0.00 | 0.00 | 0.00 | 100 | |
| 20260507074247 | 64 | 137 | 8.0 | 12.0 | 0.00 | 0.00 | 0.00 | 100 | |
| 20260507073747 | 64 | 140 | 6.0 | 11.0 | 0.00 | 0.00 | 0.00 | 100 | |
| 20260507073246 | 64 | 149 | 7.0 | 11.0 | 0.00 | 0.00 | 0.00 | 100 | |
| 20260507072733 | 64 | 133 | 7.0 | 9.0 | 0.00 | 0.00 | 0.00 | 100 | |
| 20260507072233 | 64 | 131 | 5.0 | 8.0 | 0.00 | 0.00 | 0.00 | 100 | |
| 20260507071733 | 63 | 122 | 5.0 | 7.0 | 0.00 | 0.00 | 0.00 | 100 | |
| 20260507071232 | 64 | 125 | 7.0 | 15.0 | 0.00 | 0.00 | 0.00 | 100 | |
| 20260507070728 | 64 | 119 | 9.0 | 18.0 | 0.00 | 0.00 | 0.00 | 100 | |
| 20260507070228 | 64 | 122 | 10.0 | 15.0 | 0.00 | 0.00 | 0.00 | 100 | |
| 20260507065728 | 64 | 119 | 5.0 | 7.0 | 0.00 | 0.00 | 0.00 | 100 | |
| 20260507065228 | 64 | 140 | 6.0 | 8.0 | 0.00 | 0.00 | 0.00 | 100 | |
| 20260507064728 | 64 | 136 | 5.0 | 7.0 | 0.00 | 0.00 | 0.00 | 100 | |
| 20260507064227 | 64 | 133 | 4.0 | 7.0 | 0.00 | 0.00 | 0.00 | 100 | |
| 20260507063726 | 64 | 145 | 7.0 | 10.0 | 0.00 | 0.00 | 0.00 | 100 | |
| 20260507063226 | 64 | 126 | 4.0 | 8.0 | 0.00 | 0.00 | 0.00 | 100 | |
| 20260507062726 | 63 | 135 | 4.0 | 7.0 | 0.00 | 0.00 | 0.00 | 100 | |
| 20260507062226 | 63 | 127 | 4.0 | 8.0 | 0.00 | 0.00 | 0.00 | 100 | |
| 20260507061725 | 64 | 132 | 6.0 | 9.0 | 0.00 | 0.00 | 0.00 | 100 | |
| 20260507061225 | 63 | 127 | 8.0 | 16.0 | 0.00 | 0.00 | 0.00 | 100 | |
| 20260507060725 | 63 | 131 | 5.0 | 10.0 | 0.00 | 0.00 | 0.00 | 100 | |
| 20260507060225 | 63 | 136 | 6.0 | 9.0 | 0.00 | 0.00 | 0.00 | 100 | |
| 20260507055724 | 62 | 144 | 10.0 | 17.0 | 0.00 | 0.00 | 0.00 | 100 | |
| 20260507055224 | 62 | 139 | 6.0 | 8.0 | 0.00 | 0.00 | 0.00 | 100 | |
| 20260507054724 | 62 | 142 | 10.0 | 15.0 | 0.00 | 0.00 | 0.00 | 100 | |
| 20260507054224 | 62 | 140 | 7.0 | 12.0 | 0.00 | 0.00 | 0.00 | 100 | |
| 20260507053724 | 62 | 139 | 6.0 | 11.0 | 0.00 | 0.00 | 0.00 | 100 | |
| 20260507053224 | 62 | 140 | 5.0 | 9.0 | 0.00 | 0.00 | 0.00 | 100 | |
| 20260507052723 | 61 | 142 | 4.0 | 4.0 | 0.00 | 0.00 | 0.00 | 100 | |
| 20260507052223 | 61 | 145 | 3.0 | 4.0 | 0.00 | 0.00 | 0.00 | 100 | |
| 20260507051720 | 62 | 151 | 6.0 | 10.0 | 0.00 | 0.00 | 0.00 | 100 | |
| 20260507051220 | 60 | 150 | 3.0 | 6.0 | 0.00 | 0.00 | 0.00 | 100 | |
| 20260507050719 | 61 | 144 | 2.0 | 3.0 | 0.00 | 0.00 | 0.00 | 100 | |
| 20260507050219 | 61 | 144 | 2.0 | 2.0 | 0.00 | 0.00 | 0.00 | 100 | |
| 20260507045719 | 60 | 144 | 2.0 | 2.0 | 0.00 | 0.00 | 0.00 | 100 | |
| 20260507044708 | 60 | 144 | 2.0 | 2.0 | 0.00 | 0.00 | 0.00 | 100 | |
| 20260507044208 | 60 | 144 | 2.0 | 2.0 | 0.00 | 0.00 | 0.00 | 100 | |
| 20260507043707 | 61 | 159 | 2.0 | 3.0 | 0.00 | 0.00 | 0.00 | 100 | |
| 20260507043206 | 60 | 161 | 2.0 | 4.0 | 0.00 | 0.00 | 0.00 | 100 | |
| 20260507042706 | 60 | 161 | 2.0 | 2.0 | 0.00 | 0.00 | 0.00 | 100 | |
| 20260507042206 | 60 | 161 | 2.0 | 2.0 | 0.00 | 0.00 | 0.00 | 100 | |
| 20260507041706 | 60 | 145 | 2.0 | 3.0 | 0.00 | 0.00 | 0.00 | 100 | |
| 20260507041205 | 61 | 224 | 2.0 | 3.0 | 0.00 | 0.00 | 0.00 | 100 | |
| 20260507040706 | 60 | 201 | 2.0 | 3.0 | 0.00 | 0.00 | 0.00 | 100 | |
| 20260507040205 | 61 | 105 | 3.0 | 4.0 | 0.00 | 0.00 | 0.00 | 100 | |
| 20260507035705 | 61 | 115 | 3.0 | 4.0 | 0.00 | 0.00 | 0.00 | 100 | |
| 20260507035205 | 60 | 99 | 2.0 | 4.0 | 0.00 | 0.00 | 0.00 | 100 | |
| 20260507034149 | 60 | 77 | 5.0 | 8.0 | 0.00 | 0.00 | 0.00 | 100 | |
| 20260507033647 | 61 | 122 | 4.0 | 8.0 | 0.00 | 0.00 | 0.00 | 100 | |
| 20260507033147 | 60 | 115 | 4.0 | 6.0 | 0.00 | 0.00 | 0.00 | 100 | |
| 20260507032643 | 60 | 121 | 2.0 | 4.0 | 0.00 | 0.00 | 0.00 | 100 | |
| 20260507032143 | 60 | 123 | 4.0 | 6.0 | 0.00 | 0.00 | 0.00 | 100 | |
| 20260507031643 | 60 | 123 | 4.0 | 6.0 | 0.00 | 0.00 | 0.00 | 100 | |
| 20260507031143 | 60 | 127 | 3.0 | 5.0 | 0.00 | 0.00 | 0.00 | 100 | |
| 20260507030643 | 60 | 140 | 2.0 | 4.0 | 0.00 | 0.00 | 0.00 | 100 | |
| 20260507030142 | 60 | 140 | 3.0 | 4.0 | 0.00 | 0.00 | 0.00 | 100 | |
| 20260507025642 | 60 | 141 | 4.0 | 9.0 | 0.00 | 0.00 | 0.00 | 100 | |
| 20260507025142 | 60 | 141 | 6.0 | 11.0 | 0.00 | 0.00 | 0.00 | 100 | |
| 20260507024642 | 60 | 145 | 6.0 | 10.0 | 0.00 | 0.00 | 0.00 | 100 | |
| 20260507023642 | 60 | 140 | 6.0 | 8.0 | 0.00 | 0.00 | 0.00 | 100 | |
| 20260507023141 | 60 | 140 | 7.0 | 9.0 | 0.00 | 0.00 | 0.00 | 100 | |
| 20260507022641 | 60 | 143 | 6.0 | 10.0 | 0.00 | 0.00 | 0.00 | 100 | |
| 20260507022141 | 61 | 138 | 6.0 | 7.0 | 0.00 | 0.00 | 0.00 | 100 | |
| 20260507021628 | 61 | 147 | 6.0 | 8.0 | 0.00 | 0.00 | 0.00 | 100 | |
| 20260507021128 | 61 | 151 | 7.0 | 10.0 | 0.00 | 0.00 | 0.00 | 100 | |
| 20260507020628 | 61 | 156 | 6.0 | 8.0 | 0.00 | 0.00 | 0.00 | 100 | |
| 20260507020127 | 61 | 148 | 6.0 | 9.0 | 0.00 | 0.00 | 0.00 | 100 | |
| 20260507015627 | 61 | 141 | 6.0 | 12.0 | 0.00 | 0.00 | 0.00 | 100 | |
| 20260507015127 | 61 | 140 | 5.0 | 9.0 | 0.00 | 0.00 | 0.00 | 100 | |
| 20260507014627 | 62 | 152 | 6.0 | 8.0 | 0.00 | 0.00 | 0.00 | 100 | |
| 20260507014126 | 61 | 155 | 6.0 | 8.0 | 0.00 | 0.00 | 0.00 | 100 | |
| 20260507013623 | 62 | 156 | 8.0 | 10.0 | 0.00 | 0.00 | 0.00 | 100 | |
| 20260507013123 | 62 | 152 | 6.0 | 9.0 | 0.00 | 0.00 | 0.00 | 100 | |
| 20260507012623 | 62 | 156 | 6.0 | 8.0 | 0.00 | 0.00 | 0.00 | 100 | |
| 20260507012122 | 62 | 162 | 3.0 | 6.0 | 0.00 | 0.00 | 0.00 | 100 | |
| 20260507011622 | 61 | 171 | 3.0 | 4.0 | 0.00 | 0.00 | 0.00 | 100 | |
| 20260507011122 | 62 | 142 | 3.0 | 5.0 | 0.00 | 0.00 | 0.00 | 100 | |
| 20260507010622 | 62 | 150 | 3.0 | 4.0 | 0.00 | 0.00 | 0.00 | 100 | |
| 20260507010122 | 62 | 153 | 4.0 | 6.0 | 0.00 | 0.00 | 0.00 | 100 | |
| 20260507005622 | 62 | 155 | 5.0 | 8.0 | 0.00 | 0.00 | 0.00 | 100 | |
| 20260507005121 | 62 | 163 | 4.0 | 8.0 | 0.00 | 0.00 | 0.00 | 100 | |
| 20260507004621 | 62 | 163 | 4.0 | 8.0 | 0.00 | 0.00 | 0.00 | 100 | |
| 20260507004121 | 63 | 154 | 6.0 | 10.0 | 0.00 | 0.00 | 0.00 | 100 | |
| 20260507003621 | 64 | 145 | 4.0 | 8.0 | 0.00 | 0.00 | 0.00 | 100 | |
| 20260507003121 | 63 | 171 | 3.0 | 5.0 | 0.00 | 0.00 | 0.00 | 100 | |
| 20260507002620 | 63 | 178 | 4.0 | 6.0 | 0.00 | 0.00 | 0.00 | 100 | |
| 20260507002120 | 63 | 180 | 3.0 | 7.0 | 0.00 | 0.00 | 0.00 | 100 | |
| 20260507001620 | 63 | 190 | 3.0 | 6.0 | 0.00 | 0.00 | 0.00 | 100 | |
| 20260507001120 | 63 | 170 | 5.0 | 9.0 | 0.00 | 0.00 | 0.00 | 100 | |
| 20260507000619 | 64 | 155 | 6.0 | 9.0 | 0.00 | 0.00 | 0.00 | 100 | |
| 20260507000119 | 64 | 147 | 4.0 | 8.0 | 0.00 | 0.00 | 0.00 | 100 | |
| 20260506235619 | 64 | 154 | 5.0 | 6.0 | 0.00 | 0.00 | 0.00 | 100 | |
| 20260506235118 | 64 | 153 | 7.0 | 10.0 | 0.00 | 0.00 | 0.00 | 100 | |
| 20260506234615 | 64 | 161 | 7.0 | 12.0 | 0.00 | 0.00 | 0.00 | 100 | |
| 20260506234105 | 64 | 154 | 6.0 | 9.0 | 0.00 | 0.00 | 0.00 | 100 | |
| 20260506233605 | 64 | 156 | 6.0 | 12.0 | 0.00 | 0.00 | 0.00 | 100 | |
| 20260506233105 | 64 | 162 | 9.0 | 16.0 | 0.00 | 0.00 | 0.00 | 100 | |
| 20260506232605 | 64 | 182 | 4.0 | 6.0 | 0.00 | 0.00 | 0.00 | 100 | |
| 20260506232104 | 64 | 180 | 4.0 | 8.0 | 0.00 | 0.00 | 0.00 | 100 | |
| 20260506231604 | 65 | 180 | 4.0 | 6.0 | 0.00 | 0.00 | 0.00 | 100 | |
| 20260506231104 | 64 | 187 | 2.0 | 3.0 | 0.00 | 0.00 | 0.00 | 100 | |
| 20260506230604 | 65 | 187 | 3.0 | 6.0 | 0.00 | 0.00 | 0.00 | 100 | |
| 20260506225603 | 65 | 182 | 3.0 | 4.0 | 0.00 | 0.00 | 0.00 | 100 | |
| 20260506225103 | 65 | 179 | 3.0 | 5.0 | 0.00 | 0.00 | 0.00 | 100 | |
| 20260506224603 | 65 | 166 | 6.0 | 11.0 | 0.00 | 0.00 | 0.00 | 100 | |
| 20260506224103 | 65 | 167 | 4.0 | 7.0 | 0.00 | 0.00 | 0.00 | 100 | |
| 20260506223603 | 66 | 184 | 3.0 | 4.0 | 0.00 | 0.00 | 0.00 | 100 | |
| 20260506223103 | 66 | 151 | 4.0 | 6.0 | 0.00 | 0.00 | 0.00 | 100 | |
| 20260506222602 | 65 | 159 | 3.0 | 4.0 | 0.00 | 0.00 | 0.00 | 100 | |
| 20260506222101 | 65 | 144 | 4.0 | 8.0 | 0.00 | 0.00 | 0.00 | 100 | |
| 20260506221601 | 64 | 169 | 3.0 | 5.0 | 0.00 | 0.00 | 0.00 | 100 | |
| 20260506221101 | 63 | 155 | 2.0 | 3.0 | 0.00 | 0.00 | 0.00 | 100 | |
| 20260506220601 | 65 | 210 | 2.0 | 3.0 | 0.00 | 0.00 | 0.00 | 100 | |
| 20260506220101 | 65 | 267 | 2.0 | 3.0 | 0.00 | 0.00 | 0.00 | 100 | |
| 20260506215557 | 66 | 216 | 2.0 | 3.0 | 0.00 | 0.00 | 0.00 | 100 | |
| 20260506215057 | 66 | 161 | 3.0 | 3.0 | 0.00 | 0.00 | 0.00 | 100 | |
| 20260506214556 | 66 | 169 | 3.0 | 4.0 | 0.00 | 0.00 | 0.00 | 100 | |
| 20260506214056 | 66 | 172 | 3.0 | 6.0 | 0.00 | 0.00 | 0.00 | 100 | |
| 20260506213556 | 66 | 151 | 4.0 | 8.0 | 0.00 | 0.00 | 0.00 | 100 | |
| 20260506213056 | 66 | 158 | 2.0 | 4.0 | 0.00 | 0.00 | 0.00 | 100 | |
| 20260506212556 | 67 | 144 | 4.0 | 6.0 | 0.00 | 0.00 | 0.00 | 100 | |
| 20260506212055 | 67 | 126 | 0.0 | 0.0 | 0.00 | 0.00 | 0.00 | 100 | |
| 20260506212005 | 67 | 173 | 5.0 | 10.0 | 0.00 | 0.00 | 0.00 | 100 | |
| 20260506211505 | 67 | 157 | 4.0 | 7.0 | 0.00 | 0.00 | 0.00 | 100 | |
| 20260506211003 | 66 | 173 | 2.0 | 2.0 | 0.00 | 0.00 | 0.00 | 100 | |
| 20260506210503 | 66 | 186 | 3.0 | 5.0 | 0.00 | 0.00 | 0.00 | 100 | |
| 20260506205459 | 65 | 143 | 2.0 | 4.0 | 0.00 | 0.00 | 0.00 | 100 | |
| 20260506204959 | 65 | 180 | 4.0 | 7.0 | 0.00 | 0.00 | 0.00 | 100 | |
| 20260506204459 | 65 | 163 | 2.0 | 3.0 | 0.00 | 0.00 | 0.00 | 100 | |
| 20260506203958 | 65 | 149 | 3.0 | 3.0 | 0.00 | 0.00 | 0.00 | 100 | |
| 20260506203458 | 66 | 149 | 3.0 | 3.0 | 0.00 | 0.00 | 0.00 | 100 | |
| 20260506202958 | 66 | 143 | 2.0 | 2.0 | 0.00 | 0.00 | 0.00 | 100 | |
| 20260506202447 | 66 | 141 | 3.0 | 7.0 | 0.00 | 0.00 | 0.00 | 100 | |
| 20260506201447 | 66 | 143 | 3.0 | 3.0 | 0.00 | 0.00 | 0.00 | 100 | |
| 20260506200443 | 67 | 142 | 3.0 | 3.0 | 0.00 | 0.00 | 0.00 | 100 | |
| 20260506195943 | 67 | 141 | 3.0 | 6.0 | 0.00 | 0.00 | 0.00 | 100 | |
| 20260506195443 | 67 | 144 | 3.0 | 5.0 | 0.00 | 0.00 | 0.00 | 100 | |
| 20260506194943 | 66 | 142 | 3.0 | 6.0 | 0.00 | 0.00 | 0.00 | 100 | |
| 20260506194443 | 67 | 141 | 3.0 | 3.0 | 0.00 | 0.00 | 0.00 | 100 | |
| 20260506193943 | 67 | 138 | 3.0 | 4.0 | 0.00 | 0.00 | 0.00 | 100 | |
| 20260506193442 | 66 | 141 | 2.0 | 3.0 | 0.00 | 0.00 | 0.00 | 100 | |
| 20260506192942 | 67 | 138 | 4.0 | 9.0 | 0.00 | 0.00 | 0.00 | 100 | |
| 20260506192442 | 68 | 137 | 3.0 | 4.0 | 0.00 | 0.00 | 0.00 | 100 | |
| 20260506191942 | 67 | 135 | 3.0 | 5.0 | 0.00 | 0.00 | 0.00 | 100 | |
| 20260506191441 | 67 | 139 | 2.0 | 3.0 | 0.00 | 0.00 | 0.00 | 100 | |
| 20260506190938 | 66 | 132 | 4.0 | 6.0 | 0.00 | 0.00 | 0.00 | 100 | |
| 20260506190438 | 66 | 128 | 3.0 | 4.0 | 0.00 | 0.00 | 0.00 | 100 | |
| 20260506185937 | 67 | 139 | 3.0 | 7.0 | 0.00 | 0.00 | 0.00 | 100 | |
| 20260506185437 | 68 | 142 | 2.0 | 3.0 | 0.00 | 0.00 | 0.00 | 100 | |
| 20260506184937 | 68 | 141 | 3.0 | 4.0 | 0.00 | 0.00 | 0.00 | 100 | |
| 20260506184437 | 68 | 140 | 4.0 | 5.0 | 0.00 | 0.00 | 0.00 | 100 | |
| 20260506183937 | 68 | 139 | 3.0 | 4.0 | 0.00 | 0.00 | 0.00 | 100 | |
| 20260506183436 | 68 | 142 | 2.0 | 3.0 | 0.00 | 0.00 | 0.00 | 100 | |
| 20260506182936 | 68 | 135 | 4.0 | 7.0 | 0.00 | 0.00 | 0.00 | 100 | |
| 20260506182436 | 68 | 137 | 3.0 | 5.0 | 0.00 | 0.00 | 0.00 | 100 | |
| 20260506181936 | 69 | 139 | 3.0 | 4.0 | 0.00 | 0.00 | 0.00 | 100 | |
| 20260506181432 | 68 | 129 | 3.0 | 4.0 | 0.00 | 0.00 | 0.00 | 100 | |
| 20260506180932 | 69 | 149 | 3.0 | 3.0 | 0.00 | 0.00 | 0.00 | 100 | |
| 20260506180432 | 69 | 161 | 2.0 | 3.0 | 0.00 | 0.00 | 0.00 | 100 | |
| 20260506175932 | 69 | 153 | 3.0 | 4.0 | 0.00 | 0.00 | 0.00 | 100 | |
| 20260506175432 | 70 | 155 | 4.0 | 6.0 | 0.00 | 0.00 | 0.00 | 100 | |
| 20260506174919 | 70 | 159 | 3.0 | 4.0 | 0.00 | 0.00 | 0.00 | 100 | |
| 20260506174418 | 70 | 150 | 4.0 | 6.0 | 0.00 | 0.00 | 0.00 | 100 | |
| 20260506173918 | 70 | 153 | 4.0 | 5.0 | 0.00 | 0.00 | 0.00 | 100 | |
| 20260506173418 | 70 | 155 | 5.0 | 8.0 | 0.00 | 0.00 | 0.00 | 100 | |
| 20260506172918 | 70 | 154 | 5.0 | 7.0 | 0.00 | 0.00 | 0.00 | 100 | |
| 20260506172418 | 70 | 151 | 5.0 | 8.0 | 0.00 | 0.00 | 0.00 | 100 | |
| 20260506171914 | 70 | 147 | 5.0 | 8.0 | 0.00 | 0.00 | 0.00 | 100 | |
| 20260506171414 | 71 | 151 | 6.0 | 10.0 | 0.00 | 0.00 | 0.00 | 100 | |
| 20260506170914 | 71 | 140 | 7.0 | 14.0 | 0.00 | 0.00 | 0.00 | 100 | |
| 20260506170414 | 71 | 130 | 8.0 | 10.0 | 0.00 | 0.00 | 0.00 | 100 | |
| 20260506165914 | 71 | 126 | 8.0 | 20.0 | 0.00 | 0.00 | 0.00 | 100 | |
| 20260506165413 | 71 | 127 | 6.0 | 9.0 | 0.00 | 0.00 | 0.00 | 100 | |
| 20260506164913 | 71 | 129 | 9.0 | 14.0 | 0.00 | 0.00 | 0.00 | 100 | |
| 20260506164413 | 71 | 129 | 12.0 | 21.0 | 0.00 | 0.00 | 0.00 | 100 | |
| 20260506163913 | 71 | 132 | 11.0 | 16.0 | 0.00 | 0.00 | 0.00 | 100 | |
| 20260506162912 | 71 | 130 | 10.0 | 14.0 | 0.00 | 0.00 | 0.00 | 100 | |
| 20260506162409 | 72 | 131 | 10.0 | 19.0 | 0.00 | 0.00 | 0.00 | 100 | |
| 20260506161909 | 72 | 134 | 11.0 | 16.0 | 0.00 | 0.00 | 0.00 | 100 | |
| 20260506161409 | 71 | 138 | 4.0 | 8.0 | 0.00 | 0.00 | 0.00 | 100 | |
| 20260506160908 | 72 | 135 | 6.0 | 14.0 | 0.00 | 0.00 | 0.00 | 100 | |
| 20260506160408 | 72 | 139 | 6.0 | 11.0 | 0.00 | 0.00 | 0.00 | 100 | |
| 20260506155908 | 72 | 137 | 8.0 | 11.0 | 0.00 | 0.00 | 0.00 | 100 | |
| 20260506155408 | 72 | 140 | 8.0 | 13.0 | 0.00 | 0.00 | 0.00 | 100 | |
| 20260506154908 | 72 | 123 | 9.0 | 13.0 | 0.00 | 0.00 | 0.00 | 100 | |
| 20260506154407 | 72 | 134 | 7.0 | 12.0 | 0.00 | 0.00 | 0.00 | 100 | |
| 20260506153907 | 72 | 130 | 6.0 | 9.0 | 0.00 | 0.00 | 0.00 | 100 | |
| 20260506153407 | 72 | 134 | 7.0 | 12.0 | 0.00 | 0.00 | 0.00 | 100 | |
| 20260506152904 | 72 | 139 | 8.0 | 13.0 | 0.00 | 0.00 | 0.00 | 100 | |
| 20260506152403 | 72 | 136 | 9.0 | 15.0 | 0.00 | 0.00 | 0.00 | 100 | |
| 20260506151903 | 72 | 130 | 13.0 | 18.0 | 0.00 | 0.00 | 0.00 | 100 | |
| 20260506151353 | 73 | 133 | 11.0 | 20.0 | 0.00 | 0.00 | 0.00 | 100 | |
| 20260506150853 | 73 | 134 | 8.0 | 10.0 | 0.00 | 0.00 | 0.00 | 100 | |
| 20260506150353 | 72 | 135 | 10.0 | 14.0 | 0.00 | 0.00 | 0.00 | 100 | |
| 20260506145853 | 72 | 130 | 9.0 | 15.0 | 0.00 | 0.00 | 0.00 | 100 | |
| 20260506144852 | 73 | 133 | 13.0 | 20.0 | 0.00 | 0.00 | 0.00 | 100 | |
| 20260506144352 | 73 | 133 | 8.0 | 12.0 | 0.00 | 0.00 | 0.00 | 100 | |
| 20260506143852 | 73 | 136 | 7.0 | 12.0 | 0.00 | 0.00 | 0.00 | 100 | |
| 20260506143348 | 73 | 135 | 9.0 | 14.0 | 0.00 | 0.00 | 0.00 | 100 | |
| 20260506142848 | 73 | 138 | 10.0 | 17.0 | 0.00 | 0.00 | 0.00 | 100 | |
| 20260506142348 | 73 | 134 | 12.0 | 17.0 | 0.00 | 0.00 | 0.00 | 100 | |
| 20260506141848 | 74 | 122 | 12.0 | 18.0 | 0.00 | 0.00 | 0.00 | 100 | |
| 20260506141347 | 75 | 124 | 8.0 | 16.0 | 0.00 | 0.00 | 0.00 | 100 | |
| 20260506140847 | 75 | 122 | 9.0 | 14.0 | 0.00 | 0.00 | 0.00 | 100 | |
| 20260506140347 | 75 | 117 | 10.0 | 14.0 | 0.00 | 0.00 | 0.00 | 100 | |
| 20260506135847 | 75 | 121 | 10.0 | 15.0 | 0.00 | 0.00 | 0.00 | 100 | |
| 20260506135347 | 75 | 122 | 8.0 | 14.0 | 0.00 | 0.00 | 0.00 | 100 | |
| 20260506134846 | 74 | 131 | 7.0 | 9.0 | 0.00 | 0.00 | 0.00 | 100 | |
| 20260506134346 | 74 | 129 | 11.0 | 16.0 | 0.00 | 0.00 | 0.00 | 100 | |
| 20260506133843 | 76 | 127 | 8.0 | 14.0 | 0.00 | 0.00 | 0.00 | 100 | |
| 20260506133342 | 75 | 119 | 11.0 | 17.0 | 0.00 | 0.00 | 0.00 | 100 | |
| 20260506132842 | 75 | 122 | 8.0 | 11.0 | 0.00 | 0.00 | 0.00 | 100 | |
| 20260506132342 | 75 | 123 | 10.0 | 15.0 | 0.00 | 0.00 | 0.00 | 100 | |
| 20260506131842 | 75 | 118 | 10.0 | 17.0 | 0.00 | 0.00 | 0.00 | 100 | |
| 20260506131342 | 75 | 116 | 10.0 | 19.0 | 0.00 | 0.00 | 0.00 | 100 | |
| 20260506130842 | 75 | 118 | 8.0 | 12.0 | 0.00 | 0.00 | 0.00 | 100 | |
| 20260506130341 | 75 | 121 | 12.0 | 17.0 | 0.00 | 0.00 | 0.00 | 100 | |
| 20260506125841 | 75 | 127 | 7.0 | 13.0 | 0.00 | 0.00 | 0.00 | 100 | |
| 20260506125341 | 75 | 118 | 8.0 | 15.0 | 0.00 | 0.00 | 0.00 | 100 | |
| 20260506124841 | 75 | 129 | 9.0 | 12.0 | 0.00 | 0.00 | 0.00 | 100 | |
| 20260506124336 | 75 | 130 | 11.0 | 17.0 | 0.00 | 0.00 | 0.00 | 100 | |
| 20260506123823 | 74 | 134 | 9.0 | 13.0 | 0.00 | 0.00 | 0.00 | 100 | |
| 20260506123323 | 73 | 131 | 10.0 | 15.0 | 0.00 | 0.00 | 0.00 | 100 | |
| 20260506122823 | 74 | 126 | 9.0 | 15.0 | 0.00 | 0.00 | 0.00 | 100 | |
| 20260506122322 | 75 | 130 | 8.0 | 14.0 | 0.00 | 0.00 | 0.00 | 100 | |
| 20260506121822 | 74 | 129 | 7.0 | 12.0 | 0.00 | 0.00 | 0.00 | 100 | |
| 20260506121322 | 73 | 125 | 8.0 | 12.0 | 0.00 | 0.00 | 0.00 | 100 | |
| 20260506120822 | 74 | 127 | 8.0 | 13.0 | 0.00 | 0.00 | 0.00 | 100 | |
| 20260506120322 | 73 | 122 | 11.0 | 20.0 | 0.00 | 0.00 | 0.00 | 100 | |
| 20260506115822 | 74 | 132 | 10.0 | 18.0 | 0.00 | 0.00 | 0.00 | 100 | |
| 20260506115321 | 74 | 129 | 7.0 | 10.0 | 0.00 | 0.00 | 0.00 | 100 |